Time;durP1;ratioP1;P1;durP2;ratioP2;P2;SDS_P1;SDS_P2;PMS_P1;PMS_P2;Temp;Humidity;BMP_temperature;BMP_pressure;BME280_temperature;BME280_humidity;BME280_pressure;Samples;Min_cycle;Max_cycle;Signal;HPM_P1;HPM_P2
2021/12/03 00:00:29;;;;;;;5.93;1.88;;;;;;;;;;5037834;28;20087;-76
2021/12/03 00:02:55;;;;;;;5.07;2.15;;;;;;;;;;5038538;28;20049;-75
2021/12/03 00:05:21;;;;;;;4.90;2.10;;;;;;;;;;5039022;28;20048;-76
2021/12/03 00:07:47;;;;;;;5.38;2.00;;;;;;;;;;5022758;28;20059;-74
2021/12/03 00:10:14;;;;;;;5.80;2.00;;;;;;;;;;5038056;28;20071;-75
2021/12/03 00:12:41;;;;;;;5.72;1.98;;;;;;;;;;5002983;28;20057;-75
2021/12/03 00:15:08;;;;;;;4.05;1.90;;;;;;;;;;5018869;28;20530;-75
2021/12/03 00:17:34;;;;;;;5.03;2.15;;;;;;;;;;5019461;28;20053;-74
2021/12/03 00:20:00;;;;;;;5.40;2.13;;;;;;;;;;5040541;28;20069;-75
2021/12/03 00:22:26;;;;;;;6.13;2.13;;;;;;;;;;5038837;28;20094;-76
2021/12/03 00:24:52;;;;;;;4.88;2.00;;;;;;;;;;5028131;28;20045;-75
2021/12/03 00:27:19;;;;;;;4.18;1.90;;;;;;;;;;5021414;28;20045;-76
2021/12/03 00:29:45;;;;;;;8.23;2.08;;;;;;;;;;5020501;28;20110;-75
2021/12/03 00:32:11;;;;;;;6.20;2.28;;;;;;;;;;5019008;28;20090;-76
2021/12/03 00:34:37;;;;;;;5.82;2.00;;;;;;;;;;5018634;28;20448;-76
2021/12/03 00:37:03;;;;;;;5.45;1.70;;;;;;;;;;5018471;28;20050;-75
2021/12/03 00:39:30;;;;;;;5.03;2.03;;;;;;;;;;5021349;28;20056;-76
2021/12/03 00:41:59;;;;;;;6.75;2.03;;;;;;;;;;5018428;28;20053;-76
2021/12/03 00:44:28;;;;;;;7.05;1.92;;;;;;;;;;5018888;28;20502;-75
2021/12/03 00:46:54;;;;;;;4.20;2.13;;;;;;;;;;5018197;28;20453;-75
2021/12/03 00:49:20;;;;;;;3.45;1.80;;;;;;;;;;5018651;28;20056;-76
2021/12/03 00:51:47;;;;;;;7.47;1.77;;;;;;;;;;5035912;28;20128;-75
2021/12/03 00:54:13;;;;;;;6.03;2.00;;;;;;;;;;5049672;28;20076;-74
2021/12/03 00:56:39;;;;;;;6.50;2.10;;;;;;;;;;5038030;28;20524;-76
2021/12/03 00:59:06;;;;;;;3.95;2.05;;;;;;;;;;5041761;28;20103;-74
2021/12/03 01:01:32;;;;;;;4.40;1.75;;;;;;;;;;5017935;28;20466;-75
2021/12/03 01:03:58;;;;;;;5.40;1.80;;;;;;;;;;5019068;28;20179;-74
2021/12/03 01:06:24;;;;;;;6.57;1.80;;;;;;;;;;5018385;28;20053;-74
2021/12/03 01:08:51;;;;;;;6.68;2.03;;;;;;;;;;5023260;28;20055;-76
2021/12/03 01:11:17;;;;;;;5.90;2.17;;;;;;;;;;5042156;28;20053;-74
2021/12/03 01:13:44;;;;;;;6.68;1.80;;;;;;;;;;5018093;28;20107;-76
2021/12/03 01:16:14;;;;;;;2.63;1.60;;;;;;;;;;5017846;28;20454;-76
2021/12/03 01:18:41;;;;;;;4.50;1.67;;;;;;;;;;5018754;28;20191;-74
2021/12/03 01:21:08;;;;;;;5.95;2.00;;;;;;;;;;5018023;28;20480;-75
2021/12/03 01:23:34;;;;;;;5.95;1.90;;;;;;;;;;5017815;28;20373;-75
2021/12/03 01:26:01;;;;;;;4.40;1.90;;;;;;;;;;5034452;28;20061;-74
2021/12/03 01:28:27;;;;;;;5.20;2.20;;;;;;;;;;5034971;28;20041;-74
2021/12/03 01:30:57;;;;;;;6.25;2.05;;;;;;;;;;5017261;28;20413;-74
2021/12/03 01:33:23;;;;;;;2.72;2.03;;;;;;;;;;5017736;28;20136;-76
2021/12/03 01:35:50;;;;;;;4.60;1.85;;;;;;;;;;5017984;28;20473;-74
2021/12/03 01:38:16;;;;;;;7.50;1.70;;;;;;;;;;5035169;28;20118;-74
2021/12/03 01:40:42;;;;;;;3.78;1.80;;;;;;;;;;5030132;28;20046;-76
2021/12/03 01:43:13;;;;;;;5.25;2.03;;;;;;;;;;5016956;28;20057;-76
2021/12/03 01:45:40;;;;;;;5.18;2.05;;;;;;;;;;5034434;28;20179;-76
2021/12/03 01:48:06;;;;;;;5.60;1.77;;;;;;;;;;5034627;28;20495;-76
2021/12/03 01:50:38;;;;;;;6.85;1.80;;;;;;;;;;5017821;28;20378;-75
2021/12/03 01:53:04;;;;;;;5.65;1.95;;;;;;;;;;5017847;28;20045;-76
2021/12/03 01:55:31;;;;;;;4.97;2.03;;;;;;;;;;5017169;28;20063;-74
2021/12/03 01:57:57;;;;;;;3.53;1.63;;;;;;;;;;5026473;28;20049;-75
2021/12/03 02:00:28;;;;;;;5.45;1.80;;;;;;;;;;5037437;28;20089;-74
2021/12/03 02:02:54;;;;;;;5.15;1.70;;;;;;;;;;5036567;28;20088;-76
2021/12/03 02:05:21;;;;;;;4.47;1.80;;;;;;;;;;5037615;28;20155;-75
2021/12/03 02:07:47;;;;;;;4.55;1.80;;;;;;;;;;5036843;28;20360;-74
2021/12/03 02:10:15;;;;;;;5.95;2.00;;;;;;;;;;5034743;28;20139;-75
2021/12/03 02:12:41;;;;;;;4.55;1.92;;;;;;;;;;5017104;28;20145;-74
2021/12/03 02:15:08;;;;;;;3.45;1.70;;;;;;;;;;5034158;28;20455;-74
2021/12/03 02:17:34;;;;;;;3.28;1.70;;;;;;;;;;5017263;28;20381;-75
2021/12/03 02:20:01;;;;;;;5.72;1.90;;;;;;;;;;5034657;28;20057;-75
2021/12/03 02:22:27;;;;;;;4.07;1.75;;;;;;;;;;5034015;28;20061;-76
2021/12/03 02:24:53;;;;;;;4.40;1.85;;;;;;;;;;5034163;28;20103;-75
2021/12/03 02:27:19;;;;;;;6.78;2.10;;;;;;;;;;5029095;28;20060;-75
2021/12/03 02:29:45;;;;;;;5.50;1.80;;;;;;;;;;5034729;28;20053;-74
2021/12/03 02:32:12;;;;;;;6.13;1.90;;;;;;;;;;5017846;28;20054;-75
2021/12/03 02:34:38;;;;;;;3.45;2.03;;;;;;;;;;5017142;28;20461;-75
2021/12/03 02:37:05;;;;;;;3.90;1.55;;;;;;;;;;5016918;28;20099;-75
2021/12/03 02:39:31;;;;;;;5.28;1.92;;;;;;;;;;5033711;28;20151;-75
2021/12/03 02:41:57;;;;;;;6.38;1.85;;;;;;;;;;5034550;28;20160;-75
2021/12/03 02:44:23;;;;;;;8.18;1.80;;;;;;;;;;5054529;28;20088;-74
2021/12/03 02:46:49;;;;;;;7.13;2.28;;;;;;;;;;5036191;28;20049;-76
2021/12/03 02:49:15;;;;;;;4.15;1.95;;;;;;;;;;5036697;28;20483;-75
2021/12/03 02:51:42;;;;;;;3.72;1.60;;;;;;;;;;5053901;28;20149;-75
2021/12/03 02:54:09;;;;;;;6.30;1.80;;;;;;;;;;5047704;28;20105;-75
2021/12/03 02:56:35;;;;;;;3.90;1.67;;;;;;;;;;5054334;28;20048;-76
2021/12/03 02:59:01;;;;;;;5.13;2.22;;;;;;;;;;5035561;28;20053;-75
2021/12/03 03:01:27;;;;;;;5.45;2.10;;;;;;;;;;5044039;28;20053;-75
2021/12/03 03:03:54;;;;;;;4.80;1.60;;;;;;;;;;5036394;28;20053;-75
2021/12/03 03:06:20;;;;;;;6.13;1.65;;;;;;;;;;5054132;28;20059;-75
2021/12/03 03:08:47;;;;;;;8.60;1.90;;;;;;;;;;5016941;28;20081;-75
2021/12/03 03:11:16;;;;;;;6.68;1.80;;;;;;;;;;5016398;28;20054;-75
2021/12/03 03:13:42;;;;;;;7.97;1.52;;;;;;;;;;5017046;28;20467;-74
2021/12/03 03:16:09;;;;;;;4.03;1.50;;;;;;;;;;5033800;28;20053;-75
2021/12/03 03:18:35;;;;;;;4.53;1.60;;;;;;;;;;5034099;28;20057;-74
2021/12/03 03:21:02;;;;;;;4.07;1.70;;;;;;;;;;5036491;28;20045;-74
2021/12/03 03:23:29;;;;;;;5.25;1.70;;;;;;;;;;5033295;28;20111;-75
2021/12/03 03:25:55;;;;;;;4.30;1.50;;;;;;;;;;5036810;28;20052;-75
2021/12/03 03:28:22;;;;;;;5.78;1.50;;;;;;;;;;5040550;28;20139;-76
2021/12/03 03:30:50;;;;;;;3.85;1.50;;;;;;;;;;5043140;28;20064;-74
2021/12/03 03:33:16;;;;;;;2.45;1.35;;;;;;;;;;5035764;28;20060;-75
2021/12/03 03:35:43;;;;;;;5.75;2.00;;;;;;;;;;5036430;28;20052;-75
2021/12/03 03:38:09;;;;;;;2.78;1.27;;;;;;;;;;5053017;28;20088;-74
2021/12/03 03:40:36;;;;;;;5.30;1.60;;;;;;;;;;5053407;28;20128;-76
2021/12/03 03:43:03;;;;;;;4.07;1.38;;;;;;;;;;5027637;28;20442;-74
2021/12/03 03:45:30;;;;;;;4.28;1.58;;;;;;;;;;5033267;28;20382;-76
2021/12/03 03:47:56;;;;;;;4.35;1.52;;;;;;;;;;5016211;28;20072;-75
2021/12/03 03:50:23;;;;;;;4.88;1.60;;;;;;;;;;5035866;28;20508;-76
2021/12/03 03:52:50;;;;;;;6.20;1.65;;;;;;;;;;5019106;28;20490;-76
2021/12/03 03:55:17;;;;;;;6.03;1.85;;;;;;;;;;5037173;28;20106;-75
2021/12/03 03:57:43;;;;;;;5.80;1.85;;;;;;;;;;5036834;28;20060;-75
2021/12/03 04:00:11;;;;;;;4.78;2.15;;;;;;;;;;5027883;28;20049;-74
2021/12/03 04:02:38;;;;;;;5.00;1.60;;;;;;;;;;5039435;28;20068;-75
2021/12/03 04:05:04;;;;;;;7.13;1.80;;;;;;;;;;5048134;28;20049;-75
2021/12/03 04:07:31;;;;;;;4.55;1.80;;;;;;;;;;5036872;28;20128;-75
2021/12/03 04:09:57;;;;;;;7.05;2.10;;;;;;;;;;5002833;28;20049;-76
2021/12/03 04:12:24;;;;;;;4.43;2.00;;;;;;;;;;5019269;28;20150;-74
2021/12/03 04:14:50;;;;;;;3.55;1.73;;;;;;;;;;5019642;28;20068;-75
2021/12/03 04:17:17;;;;;;;4.80;2.00;;;;;;;;;;5036650;28;20049;-75
2021/12/03 04:19:43;;;;;;;7.70;2.00;;;;;;;;;;5013951;28;20061;-76
2021/12/03 04:22:14;;;;;;;4.40;2.10;;;;;;;;;;5037835;28;20452;-75
2021/12/03 04:24:40;;;;;;;6.35;2.00;;;;;;;;;;5056538;28;20077;-75
2021/12/03 04:27:07;;;;;;;3.88;1.90;;;;;;;;;;5051676;28;20060;-74
2021/12/03 04:29:33;;;;;;;7.15;1.95;;;;;;;;;;5035440;28;20053;-75
2021/12/03 04:31:59;;;;;;;6.70;2.25;;;;;;;;;;5038873;28;20040;-74
2021/12/03 04:34:25;;;;;;;4.97;2.05;;;;;;;;;;5038328;28;20075;-77
2021/12/03 04:36:52;;;;;;;5.65;2.08;;;;;;;;;;5055731;28;20080;-74
2021/12/03 04:39:18;;;;;;;4.07;2.20;;;;;;;;;;5055915;28;20538;-75
2021/12/03 04:41:44;;;;;;;3.33;2.22;;;;;;;;;;5032395;28;20125;-75
2021/12/03 04:44:10;;;;;;;4.82;1.95;;;;;;;;;;5019086;28;20365;-74
2021/12/03 04:46:37;;;;;;;4.53;2.00;;;;;;;;;;5018770;28;20126;-76
2021/12/03 04:49:03;;;;;;;8.15;2.33;;;;;;;;;;5036121;28;20068;-74
2021/12/03 04:51:29;;;;;;;4.55;2.40;;;;;;;;;;5035686;28;20124;-75
2021/12/03 04:53:55;;;;;;;6.93;2.70;;;;;;;;;;5023952;28;20060;-75
2021/12/03 04:56:21;;;;;;;10.30;2.88;;;;;;;;;;5018768;28;20064;-76
2021/12/03 04:58:47;;;;;;;7.07;2.90;;;;;;;;;;5035928;28;20106;-76
2021/12/03 05:01:13;;;;;;;10.90;2.92;;;;;;;;;;5038193;28;20404;-75
2021/12/03 05:03:40;;;;;;;4.80;2.50;;;;;;;;;;5038009;28;20124;-75
2021/12/03 05:06:09;;;;;;;9.35;3.00;;;;;;;;;;5038619;28;20041;-76
2021/12/03 05:08:36;;;;;;;6.68;3.10;;;;;;;;;;5038354;28;20044;-74
2021/12/03 05:11:02;;;;;;;6.03;2.85;;;;;;;;;;5036384;28;20159;-76
2021/12/03 05:13:29;;;;;;;6.53;2.83;;;;;;;;;;5035825;28;20148;-75
2021/12/03 05:15:56;;;;;;;5.68;2.58;;;;;;;;;;5053770;28;20128;-75
2021/12/03 05:18:23;;;;;;;6.57;3.00;;;;;;;;;;5037827;28;20059;-75
2021/12/03 05:20:51;;;;;;;4.22;2.80;;;;;;;;;;5042424;28;20079;-75
2021/12/03 05:23:17;;;;;;;5.70;2.83;;;;;;;;;;5035399;28;20053;-76
2021/12/03 05:25:44;;;;;;;7.32;2.88;;;;;;;;;;5018388;28;20409;-76
2021/12/03 05:28:10;;;;;;;7.68;2.97;;;;;;;;;;5035392;28;20045;-75
2021/12/03 05:30:37;;;;;;;5.35;2.58;;;;;;;;;;5017825;28;20053;-75
2021/12/03 05:33:04;;;;;;;7.25;3.05;;;;;;;;;;5018010;28;20427;-76
2021/12/03 05:35:30;;;;;;;6.05;3.05;;;;;;;;;;5021410;28;20057;-75
2021/12/03 05:37:57;;;;;;;7.22;3.03;;;;;;;;;;5037795;28;20469;-74
2021/12/03 05:40:24;;;;;;;6.93;3.65;;;;;;;;;;5055414;28;20045;-75
2021/12/03 05:42:50;;;;;;;8.70;4.07;;;;;;;;;;5054257;28;20111;-76
2021/12/03 05:45:19;;;;;;;7.45;3.22;;;;;;;;;;5037867;28;20112;-76
2021/12/03 05:47:45;;;;;;;7.63;2.60;;;;;;;;;;5034887;28;20515;-75
2021/12/03 05:50:13;;;;;;;5.75;2.63;;;;;;;;;;5035530;28;20110;-76
2021/12/03 05:52:39;;;;;;;8.82;2.50;;;;;;;;;;5019036;28;20068;-77
2021/12/03 05:55:06;;;;;;;5.68;2.60;;;;;;;;;;5055132;28;20060;-75
2021/12/03 05:57:32;;;;;;;4.50;2.20;;;;;;;;;;5027711;28;20405;-76
2021/12/03 05:59:58;;;;;;;7.93;2.25;;;;;;;;;;5034848;28;20057;-75
2021/12/03 06:02:24;;;;;;;7.57;2.35;;;;;;;;;;5017150;28;20080;-75
2021/12/03 06:04:51;;;;;;;7.93;2.10;;;;;;;;;;5017760;28;20107;-79
2021/12/03 06:07:17;;;;;;;4.60;2.30;;;;;;;;;;5017535;28;20081;-77
2021/12/03 06:09:45;;;;;;;7.72;2.70;;;;;;;;;;5017533;28;20056;-78
2021/12/03 06:12:11;;;;;;;5.55;2.10;;;;;;;;;;5016971;28;20049;-77
2021/12/03 06:14:37;;;;;;;4.65;2.10;;;;;;;;;;5031941;28;20060;-77
2021/12/03 06:17:03;;;;;;;5.35;2.40;;;;;;;;;;5037314;28;20099;-76
2021/12/03 06:19:29;;;;;;;6.22;2.67;;;;;;;;;;5052969;28;20080;-76
2021/12/03 06:21:56;;;;;;;5.45;2.00;;;;;;;;;;5054484;28;20095;-76
2021/12/03 06:24:22;;;;;;;5.13;2.13;;;;;;;;;;5054329;28;20143;-78
2021/12/03 06:26:48;;;;;;;6.47;2.38;;;;;;;;;;5050299;28;20041;-76
2021/12/03 06:29:14;;;;;;;4.10;1.90;;;;;;;;;;5016623;28;20060;-76
2021/12/03 06:31:40;;;;;;;5.75;1.90;;;;;;;;;;5034382;28;20539;-76
2021/12/03 06:34:06;;;;;;;5.68;2.20;;;;;;;;;;5017546;28;20414;-75
2021/12/03 06:36:32;;;;;;;6.35;2.17;;;;;;;;;;5039454;28;20132;-75
2021/12/03 06:38:59;;;;;;;5.95;2.30;;;;;;;;;;5052352;28;20092;-77
2021/12/03 06:41:25;;;;;;;6.57;2.22;;;;;;;;;;5053779;28;20144;-77
2021/12/03 06:43:51;;;;;;;5.90;2.33;;;;;;;;;;5021516;28;20528;-75
2021/12/03 06:46:18;;;;;;;9.13;2.95;;;;;;;;;;5016615;28;20128;-76
2021/12/03 06:48:44;;;;;;;9.65;2.90;;;;;;;;;;5016748;28;20122;-76
2021/12/03 06:51:10;;;;;;;6.63;2.85;;;;;;;;;;5016392;28;20049;-76
2021/12/03 06:53:46;;;;;;;6.85;2.50;;;;;;;;;;5033731;28;20084;-76
2021/12/03 06:56:21;;;;;;;7.85;3.17;;;;;;;;;;5016712;28;20081;-76
2021/12/03 06:58:47;;;;;;;5.85;2.80;;;;;;;;;;5036328;28;20049;-76
2021/12/03 07:01:14;;;;;;;6.70;2.80;;;;;;;;;;5034414;28;20045;-79
2021/12/03 07:03:40;;;;;;;7.18;3.35;;;;;;;;;;5000039;28;20073;-75
2021/12/03 07:06:06;;;;;;;8.27;3.15;;;;;;;;;;5038742;28;20041;-75
2021/12/03 07:08:32;;;;;;;6.13;3.25;;;;;;;;;;5052580;28;20476;-75
2021/12/03 07:10:58;;;;;;;8.30;3.00;;;;;;;;;;5054073;28;20521;-82
2021/12/03 07:13:31;;;;;;;5.25;3.40;;;;;;;;;;5036648;28;20037;-75
2021/12/03 07:15:58;;;;;;;10.60;3.88;;;;;;;;;;5031972;28;20038;-74
2021/12/03 07:18:24;;;;;;;10.63;3.83;;;;;;;;;;5033730;28;20056;-76
2021/12/03 07:20:50;;;;;;;10.13;3.90;;;;;;;;;;5016858;28;20045;-75
2021/12/03 07:23:16;;;;;;;10.32;4.05;;;;;;;;;;5015923;28;20450;-76
2021/12/03 07:25:43;;;;;;;8.57;4.43;;;;;;;;;;5019843;28;20855;-76
2021/12/03 07:28:09;;;;;;;7.80;4.47;;;;;;;;;;5019478;28;20076;-75
2021/12/03 07:30:36;;;;;;;8.85;4.80;;;;;;;;;;5053179;28;20049;-76
2021/12/03 07:33:02;;;;;;;9.52;5.03;;;;;;;;;;5057653;28;20084;-76
2021/12/03 07:35:28;;;;;;;10.75;5.55;;;;;;;;;;5052989;28;20402;-76
2021/12/03 07:37:54;;;;;;;9.68;5.20;;;;;;;;;;5036963;28;20131;-77
2021/12/03 07:40:20;;;;;;;10.10;5.50;;;;;;;;;;5020789;28;20100;-76
2021/12/03 07:42:46;;;;;;;14.38;5.60;;;;;;;;;;5016451;28;20159;-74
2021/12/03 07:45:16;;;;;;;13.55;5.40;;;;;;;;;;5016869;28;20049;-75
2021/12/03 07:47:42;;;;;;;10.05;5.63;;;;;;;;;;5016429;28;20056;-76
2021/12/03 07:50:10;;;;;;;9.40;5.50;;;;;;;;;;5017684;28;20050;-75
2021/12/03 07:52:36;;;;;;;10.27;5.13;;;;;;;;;;5016340;28;20068;-76
2021/12/03 07:55:03;;;;;;;14.43;4.50;;;;;;;;;;5017470;28;20056;-75
2021/12/03 07:57:32;;;;;;;9.90;4.00;;;;;;;;;;5024125;28;20119;-83
2021/12/03 07:59:59;;;;;;;10.13;4.28;;;;;;;;;;5024958;28;20060;-76
2021/12/03 08:02:26;;;;;;;8.80;4.45;;;;;;;;;;5017374;28;20053;-76
2021/12/03 08:04:53;;;;;;;8.50;5.00;;;;;;;;;;5019045;28;20140;-76
2021/12/03 08:07:19;;;;;;;9.95;4.50;;;;;;;;;;5025915;28;20054;-76
2021/12/03 08:09:45;;;;;;;9.18;4.20;;;;;;;;;;5017206;28;20081;-74
2021/12/03 08:12:12;;;;;;;9.50;4.20;;;;;;;;;;5016036;28;20141;-77
2021/12/03 08:14:38;;;;;;;6.70;4.65;;;;;;;;;;5016119;28;20119;-77
2021/12/03 08:17:04;;;;;;;9.43;4.00;;;;;;;;;;5017144;28;20085;-76
2021/12/03 08:19:30;;;;;;;8.60;4.20;;;;;;;;;;5018671;28;20073;-75
2021/12/03 08:21:56;;;;;;;9.00;4.20;;;;;;;;;;5015615;28;20064;-76
2021/12/03 08:24:22;;;;;;;8.55;3.72;;;;;;;;;;5016251;28;20125;-80
2021/12/03 08:26:48;;;;;;;8.40;3.47;;;;;;;;;;4998917;28;20458;-80
2021/12/03 08:29:15;;;;;;;9.65;3.60;;;;;;;;;;5016344;28;20474;-76
2021/12/03 08:31:41;;;;;;;8.80;4.15;;;;;;;;;;5016483;28;20466;-75
2021/12/03 08:34:07;;;;;;;5.93;3.10;;;;;;;;;;5016714;28;20034;-76
2021/12/03 08:36:33;;;;;;;8.13;3.42;;;;;;;;;;5016157;28;20053;-75
2021/12/03 08:38:59;;;;;;;7.57;3.75;;;;;;;;;;5018792;28;20041;-75
2021/12/03 08:41:26;;;;;;;6.97;3.60;;;;;;;;;;5023994;28;20141;-76
2021/12/03 08:43:52;;;;;;;6.40;3.30;;;;;;;;;;5021380;28;20057;-75
2021/12/03 08:46:32;;;;;;;8.23;3.58;;;;;;;;;;5038807;28;20052;-76
2021/12/03 08:49:27;;;;;;;7.57;3.47;;;;;;;;;;5038578;28;20071;-76
2021/12/03 08:51:53;;;;;;;10.05;4.15;;;;;;;;;;5028801;28;20103;-73
2021/12/03 08:57:04;;;;;;;6.38;3.58;;;;;;;;;;5018565;28;20045;-76
2021/12/03 08:59:30;;;;;;;9.13;3.83;;;;;;;;;;5035537;28;20037;-76
2021/12/03 09:01:56;;;;;;;6.57;3.25;;;;;;;;;;5018741;28;20077;-76
2021/12/03 09:04:23;;;;;;;9.02;3.88;;;;;;;;;;5039611;28;20068;-77
2021/12/03 09:06:49;;;;;;;9.25;3.97;;;;;;;;;;5036227;28;20179;-78
2021/12/03 09:09:16;;;;;;;8.80;3.63;;;;;;;;;;5044877;28;20524;-75
2021/12/03 09:11:42;;;;;;;10.35;3.65;;;;;;;;;;5037837;28;20049;-76
2021/12/03 09:19:39;;;;;;;10.40;3.17;;;;;;;;;;5031807;28;20524;-76
2021/12/03 09:22:07;;;;;;;7.45;3.10;;;;;;;;;;5035238;28;20053;-75
2021/12/03 09:24:36;;;;;;;7.70;3.03;;;;;;;;;;5012088;28;20045;-75
2021/12/03 09:27:03;;;;;;;7.80;3.10;;;;;;;;;;5028015;28;20041;-76
2021/12/03 09:29:35;;;;;;;7.05;3.10;;;;;;;;;;5033527;28;20045;-75
2021/12/03 09:32:01;;;;;;;6.78;2.60;;;;;;;;;;5040059;28;20061;-76
2021/12/03 09:34:32;;;;;;;8.15;3.00;;;;;;;;;;5018980;28;20045;-76
2021/12/03 09:36:59;;;;;;;7.35;2.75;;;;;;;;;;5036572;28;20453;-76
2021/12/03 09:39:25;;;;;;;8.55;3.28;;;;;;;;;;5036847;28;20075;-76
2021/12/03 09:41:52;;;;;;;10.77;3.10;;;;;;;;;;5033273;28;20061;-76
2021/12/03 09:44:19;;;;;;;8.93;2.47;;;;;;;;;;5000966;28;20428;-74
2021/12/03 09:46:46;;;;;;;8.70;3.30;;;;;;;;;;5014409;28;20093;-75
2021/12/03 09:56:45;;;;;;;7.65;3.90;;;;;;;;;;5033595;28;20073;-75
2021/12/03 10:02:12;;;;;;;9.95;3.90;;;;;;;;;;5033515;28;20049;-75
2021/12/03 10:15:06;;;;;;;6.45;3.70;;;;;;;;;;5038275;28;20053;-75
2021/12/03 10:20:12;;;;;;;13.82;4.88;;;;;;;;;;5047976;28;20107;-76
2021/12/03 10:48:12;;;;;;;8.02;3.05;;;;;;;;;;5016293;28;20057;-76
2021/12/03 11:17:38;;;;;;;10.90;4.07;;;;;;;;;;5037526;28;20067;-78
2021/12/03 13:35:39;;;;;;;8.18;7.00;;;;;;;;;;5018078;28;20061;-72
2021/12/03 14:08:27;;;;;;;8.85;7.38;;;;;;;;;;5014112;28;20454;-74
2021/12/03 14:15:13;;;;;;;11.73;9.15;;;;;;;;;;5020521;28;20406;-74
2021/12/03 14:38:12;;;;;;;14.10;9.70;;;;;;;;;;5018536;28;20099;-74
2021/12/03 14:43:52;;;;;;;13.50;9.75;;;;;;;;;;4992218;28;20065;-75
2021/12/03 14:54:50;;;;;;;15.70;10.85;;;;;;;;;;5028607;28;20128;-74
2021/12/03 14:57:42;;;;;;;;;;;;;;;;;;5034374;28;20053;-75
2021/12/03 15:05:44;;;;;;;13.80;10.45;;;;;;;;;;4989033;28;20170;-75
2021/12/03 15:08:14;;;;;;;14.63;11.68;;;;;;;;;;5036469;28;20064;-74
2021/12/03 15:13:37;;;;;;;14.68;12.25;;;;;;;;;;5048251;28;20049;-76
2021/12/03 15:32:36;;;;;;;15.52;12.85;;;;;;;;;;5020837;28;20057;-76
2021/12/03 15:37:46;;;;;;;13.18;11.63;;;;;;;;;;5032759;28;20402;-76
2021/12/03 16:04:35;;;;;;;15.70;13.68;;;;;;;;;;5019089;28;20060;-77
2021/12/03 16:07:22;;;;;;;17.42;13.88;;;;;;;;;;5024851;28;20041;-78
2021/12/03 16:46:58;;;;;;;15.15;12.38;;;;;;;;;;5044611;28;20036;-82
2021/12/03 16:51:54;;;;;;;15.30;13.02;;;;;;;;;;5042358;28;20115;-75
2021/12/03 16:54:48;;;;;;;15.32;12.57;;;;;;;;;;5031554;28;20103;-74
2021/12/03 16:57:16;;;;;;;14.30;12.10;;;;;;;;;;5045341;28;20349;-75
2021/12/03 16:59:45;;;;;;;14.48;12.32;;;;;;;;;;5031341;28;20095;-75
2021/12/03 17:02:15;;;;;;;16.33;13.85;;;;;;;;;;5033945;28;20064;-75
2021/12/03 17:18:56;;;;;;;15.32;12.63;;;;;;;;;;5030062;28;20067;-74
2021/12/03 17:55:17;;;;;;;18.13;13.25;;;;;;;;;;5023775;28;20465;-76
2021/12/03 18:00:33;;;;;;;14.80;12.10;;;;;;;;;;5016046;28;20059;-74
2021/12/03 18:03:09;;;;;;;17.17;12.80;;;;;;;;;;5025049;28;20053;-75
2021/12/03 18:08:31;;;;;;;16.60;13.50;;;;;;;;;;5032466;28;20053;-75
2021/12/03 18:14:14;;;;;;;15.93;12.70;;;;;;;;;;5047981;28;20057;-75
2021/12/03 18:52:24;;;;;;;23.85;17.65;;;;;;;;;;5035379;28;20121;-74
2021/12/03 18:55:01;;;;;;;22.10;17.23;;;;;;;;;;5033350;28;20480;-74
2021/12/03 18:57:30;;;;;;;26.92;18.80;;;;;;;;;;5033741;28;20108;-75
2021/12/03 19:00:01;;;;;;;25.63;18.88;;;;;;;;;;5048685;28;20060;-76
2021/12/03 19:02:28;;;;;;;27.65;19.33;;;;;;;;;;5054002;28;20080;-75
2021/12/03 19:05:02;;;;;;;26.88;18.63;;;;;;;;;;5036976;28;20064;-76
2021/12/03 19:07:38;;;;;;;32.25;21.55;;;;;;;;;;5051653;28;20056;-75
2021/12/03 19:10:09;;;;;;;;;;;;;;;;;;5034408;28;20037;-75
2021/12/03 19:12:39;;;;;;;25.67;17.38;;;;;;;;;;5016675;28;19917;-75
2021/12/03 19:15:06;;;;;;;26.95;19.42;;;;;;;;;;5019796;28;20053;-75
2021/12/03 19:17:37;;;;;;;24.45;17.85;;;;;;;;;;5018852;28;20054;-75
2021/12/03 19:20:04;;;;;;;25.40;18.33;;;;;;;;;;5044870;28;20053;-75
2021/12/03 19:22:31;;;;;;;26.67;18.70;;;;;;;;;;5057389;28;20106;-74
2021/12/03 19:24:58;;;;;;;28.00;20.80;;;;;;;;;;5041975;28;20489;-74
2021/12/03 19:27:25;;;;;;;25.55;19.02;;;;;;;;;;5020639;28;20057;-74
2021/12/03 19:29:54;;;;;;;29.23;20.88;;;;;;;;;;5021158;28;20057;-74
2021/12/03 19:32:23;;;;;;;27.45;20.30;;;;;;;;;;5020509;28;20113;-73
2021/12/03 19:34:50;;;;;;;25.98;18.58;;;;;;;;;;5037969;28;20103;-74
2021/12/03 19:37:16;;;;;;;26.65;19.08;;;;;;;;;;5026215;28;20045;-74
2021/12/03 19:39:42;;;;;;;27.27;20.38;;;;;;;;;;5022236;28;20056;-75
2021/12/03 19:42:15;;;;;;;31.70;21.50;;;;;;;;;;5024742;28;20477;-75
2021/12/03 19:44:46;;;;;;;29.52;21.42;;;;;;;;;;5037420;28;20049;-74
2021/12/03 19:47:13;;;;;;;29.52;21.02;;;;;;;;;;5037028;28;20432;-75
2021/12/03 19:52:39;;;;;;;29.38;22.63;;;;;;;;;;5037368;28;20148;-75
2021/12/03 19:54:58;;;;;;;31.08;21.77;;;;;;;;;;5045286;28;20049;-74
2021/12/03 19:57:24;;;;;;;32.33;22.02;;;;;;;;;;5036631;28;20560;-75
2021/12/03 19:59:50;;;;;;;35.92;24.88;;;;;;;;;;5041647;28;20136;-75
2021/12/03 20:02:17;;;;;;;36.05;25.02;;;;;;;;;;5036541;28;20125;-74
2021/12/03 20:04:44;;;;;;;40.88;26.67;;;;;;;;;;5028976;28;20326;-73
2021/12/03 20:07:10;;;;;;;40.63;24.67;;;;;;;;;;5025492;28;20041;-75
2021/12/03 20:10:11;;;;;;;42.50;26.50;;;;;;;;;;5019576;28;20536;-75
2021/12/03 20:12:31;;;;;;;45.20;26.67;;;;;;;;;;5033531;28;20064;-74
2021/12/03 20:14:58;;;;;;;41.13;26.40;;;;;;;;;;5037047;28;20053;-75
2021/12/03 20:17:34;;;;;;;42.20;25.48;;;;;;;;;;5019752;28;20403;-74
2021/12/03 20:20:03;;;;;;;43.22;28.02;;;;;;;;;;5019109;28;20370;-74
2021/12/03 20:28:01;;;;;;;44.00;27.85;;;;;;;;;;5024804;28;20057;-73
2021/12/03 20:30:46;;;;;;;43.05;25.50;;;;;;;;;;5040366;28;20052;-74
2021/12/03 20:38:31;;;;;;;51.13;29.48;;;;;;;;;;5036474;28;20525;-74
2021/12/03 20:41:03;;;;;;;43.78;26.55;;;;;;;;;;5036597;28;20045;-73
2021/12/03 20:43:41;;;;;;;47.50;27.33;;;;;;;;;;5018950;28;20496;-74
2021/12/03 20:46:21;;;;;;;47.92;27.90;;;;;;;;;;5036261;28;20053;-75
2021/12/03 20:52:06;;;;;;;50.22;27.40;;;;;;;;;;5018988;28;20075;-73
2021/12/03 21:10:54;;;;;;;52.67;29.40;;;;;;;;;;5026992;28;20060;-73
2021/12/03 21:21:19;;;;;;;50.35;27.08;;;;;;;;;;5035839;28;20050;-75
2021/12/03 21:23:46;;;;;;;50.42;26.75;;;;;;;;;;5046435;28;20132;-74
2021/12/03 21:26:32;;;;;;;49.67;26.75;;;;;;;;;;5019122;28;20053;-75
2021/12/03 21:29:22;;;;;;;47.95;27.35;;;;;;;;;;5023115;28;20191;-73
2021/12/03 21:31:58;;;;;;;43.85;26.55;;;;;;;;;;5053526;28;20195;-74
2021/12/03 21:40:03;;;;;;;43.97;26.42;;;;;;;;;;5017767;28;20377;-73
2021/12/03 21:42:33;;;;;;;42.55;25.67;;;;;;;;;;5013606;28;20073;-75
2021/12/03 21:44:59;;;;;;;44.53;26.23;;;;;;;;;;5024517;28;20058;-75
2021/12/03 21:47:25;;;;;;;43.58;24.73;;;;;;;;;;5016820;28;20046;-74
2021/12/03 21:49:51;;;;;;;42.78;25.67;;;;;;;;;;5014800;28;20436;-74
2021/12/03 21:52:18;;;;;;;42.75;25.05;;;;;;;;;;5014867;28;20492;-75
2021/12/03 21:54:44;;;;;;;45.33;26.33;;;;;;;;;;5030649;28;20054;-74
2021/12/03 21:57:10;;;;;;;45.30;26.98;;;;;;;;;;5014500;28;20072;-75
2021/12/03 21:59:36;;;;;;;44.05;26.33;;;;;;;;;;5016614;28;20081;-76
2021/12/03 22:02:02;;;;;;;47.55;27.42;;;;;;;;;;4997325;28;20045;-74
2021/12/03 22:04:30;;;;;;;49.33;27.35;;;;;;;;;;5022644;28;20507;-74
2021/12/03 22:07:00;;;;;;;50.78;27.33;;;;;;;;;;5013865;28;20060;-73
2021/12/03 22:09:26;;;;;;;49.90;26.42;;;;;;;;;;5018699;28;20054;-73
2021/12/03 22:11:53;;;;;;;51.80;25.80;;;;;;;;;;5017053;28;20131;-74
2021/12/03 22:14:19;;;;;;;50.30;27.73;;;;;;;;;;5014369;28;20058;-74
2021/12/03 22:16:45;;;;;;;56.28;28.35;;;;;;;;;;5014087;28;20095;-74
2021/12/03 22:19:12;;;;;;;50.53;27.15;;;;;;;;;;5026198;28;20049;-73
2021/12/03 22:21:38;;;;;;;53.67;26.77;;;;;;;;;;5014611;28;20045;-73
2021/12/03 22:24:04;;;;;;;52.85;26.80;;;;;;;;;;5013452;28;20057;-73
2021/12/03 22:26:30;;;;;;;51.25;27.95;;;;;;;;;;5013806;28;20065;-74
2021/12/03 22:28:57;;;;;;;53.83;27.77;;;;;;;;;;5013325;28;20120;-74
2021/12/03 22:31:24;;;;;;;48.15;26.92;;;;;;;;;;5013811;28;20085;-73
2021/12/03 22:33:50;;;;;;;51.08;26.23;;;;;;;;;;5016187;28;20072;-73
2021/12/03 22:36:17;;;;;;;49.83;26.00;;;;;;;;;;5020167;28;20108;-73
2021/12/03 22:38:43;;;;;;;47.28;27.00;;;;;;;;;;5013888;28;20054;-74
2021/12/03 22:41:11;;;;;;;49.38;25.73;;;;;;;;;;5027444;28;20061;-74
2021/12/03 22:43:38;;;;;;;51.67;26.88;;;;;;;;;;5037024;28;20544;-73
2021/12/03 22:51:06;;;;;;;48.85;25.20;;;;;;;;;;5030274;28;20140;-74
2021/12/03 22:53:32;;;;;;;49.90;25.65;;;;;;;;;;5015594;28;20416;-73
2021/12/03 22:55:58;;;;;;;45.20;25.98;;;;;;;;;;5034097;28;20042;-74
2021/12/03 22:58:24;;;;;;;51.33;25.30;;;;;;;;;;5034444;28;20067;-73
2021/12/03 23:00:52;;;;;;;52.78;24.85;;;;;;;;;;5033861;28;20091;-73
2021/12/03 23:03:19;;;;;;;47.50;25.88;;;;;;;;;;5033789;28;20055;-74
2021/12/03 23:05:45;;;;;;;45.72;25.73;;;;;;;;;;5017205;28;20453;-74
2021/12/03 23:08:12;;;;;;;47.03;25.02;;;;;;;;;;5024023;28;20056;-73
2021/12/03 23:10:38;;;;;;;44.35;24.48;;;;;;;;;;5032370;28;20096;-73
2021/12/03 23:13:04;;;;;;;44.05;24.50;;;;;;;;;;5037755;28;20450;-74
2021/12/03 23:15:31;;;;;;;45.58;24.80;;;;;;;;;;5033295;28;20071;-74
2021/12/03 23:17:58;;;;;;;46.65;25.08;;;;;;;;;;5036970;28;20037;-73
2021/12/03 23:20:24;;;;;;;46.13;24.42;;;;;;;;;;5023857;28;20056;-73